NOAA Weather Radio

Lightning Safety

Turn Around Don't Drown
Storm Ready
SkyWarn
WACO REGIONAL AIRPORT, TX, United States (KACT) 31-36N 97-13W 151M
Sep 30, 2014 - 01:51 AM EDT / 2014.09.30 0551 UTC
Wind: Calm:0
Visibility: 10 mile(s):0
Sky conditions: clear
Temperature: 70.0 F (21.1 C)
Dew Point: 60.1 F (15.6 C)
Relative Humidity: 70%
Pressure (altimeter): 29.9 in. Hg (1012 hPa)
Pressure tendency: 0.00 inches (0.1 hPa) higher than three hours ago
ob: KACT 300551Z 00000KT 10SM CLR 21/16 A2990 RMK AO2 SLP119 T02110156 10294 20200 403280172 53001
cycle: 6